• Join FlightAware (Why Join?)
  • Login
  • US Flag 
04:39PM EDT


 

Airport Tracker/Info


-or-


 

Live Flight TrackerFlight Track Log ✈ CTL13 ✈ 25-Apr-2013 ✈ KBKL - KEYE

Flight Track Log - Related Links

Times and Time Zones

All times are in EDT time to prevent confusion due to time zone crossing. See the CTL13 flight status page for this flight to view local times or setup timezone preferences in your user account.

Time Position Orientation Groundspeed Altitude Reporting Facility
EDT Latitude Longitude Course Direction KTS MPH feet Rate Location/Type
06:37PM 41.5125 -81.6978 320° Northwest 115 132 1,000  Level Cleveland Center
06:37PM 41.5250 -81.7119 320° Northwest 122 140 1,800 660 Climbing Cleveland Center
06:38PM 41.5644 -81.7319 339° North 164 189 2,100 1,020 Climbing Cleveland Center
06:39PM 41.5786 -81.7656 299° West 86 99 3,900 1,620 Climbing Cleveland Center
06:40PM 41.5847 -81.7936 286° West 80 92 5,300 1,320 Climbing Cleveland Center
06:41PM 41.5822 -81.8267 264° West 92 106 6,700 1,020 Climbing Cleveland Center
06:43PM 41.5714 -81.8625 248° West 99 114 7,700 660 Climbing Cleveland Center
06:44PM 41.5564 -81.8983 241° Southwest 124 143 8,100 180 Climbing Cleveland Center
06:45PM 41.5392 -81.9481 245° Southwest 144 166 8,100  Level Cleveland Center
06:45PM 41.5261 -81.9811 242° Southwest 138 159 8,100  Level Cleveland Center
06:46PM 41.5089 -82.0222 241° Southwest 136 157 8,100 -60 Level Cleveland Center
06:47PM 41.4917 -82.0661 242° Southwest 142 163 8,000  Descending Cleveland Center
06:48PM 41.4722 -82.1211 245° Southwest 141 162 8,100  Climbing Cleveland Center
06:50PM 41.4299 -82.1350 194° South  Level FlightAware Approximate
06:57PM 41.3118 -82.4632 245° Southwest  Level Estimated
06:58PM 41.2744 -82.4777 196° South  Level FlightAware Approximate
06:59PM 41.2577 -82.5247 245° Southwest  Level Estimated
07:00PM 41.2395 -82.5705 242° Southwest  Level FlightAware Approximate
07:01PM 41.2212 -82.6164 242° Southwest  Level FlightAware Approximate
07:02PM 41.2028 -82.6622 242° Southwest  Level FlightAware Approximate
07:03PM 41.1845 -82.7079 242° Southwest  Level FlightAware Approximate
07:03PM 41.2144 -82.8300 242° Southwest 163 188 8,900  Level Cleveland Center
07:04PM 41.1662 -82.7537 242° Southwest  Level FlightAware Approximate
07:04PM 41.1969 -82.8792 245° Southwest 149 171 9,500  Level Cleveland Center
07:05PM 41.1478 -82.7994 242° Southwest  Level FlightAware Approximate
07:05PM 41.1856 -82.9256 252° West 149 171 9,800  Level Cleveland Center
07:06PM 41.1294 -82.8451 242° Southwest  Level FlightAware Approximate
07:06PM 41.1658 -82.9744 242° Southwest 149 171 10,000  Level Cleveland Center
07:07PM 41.1110 -82.8908 242° Southwest  Level FlightAware Approximate
07:07PM 41.1458 -83.0289 244° Southwest 155 178 10,000  Level Cleveland Center
07:08PM 41.0926 -82.9365 242° Southwest  Level FlightAware Approximate
07:08PM 41.1258 -83.0806 243° Southwest 155 178 10,000  Level Cleveland Center
07:09PM 41.1061 -83.1294 242° Southwest 155 178 10,000  Level Cleveland Center
07:10PM 41.0903 -83.1811 248° West 155 178 10,000  Level Cleveland Center
07:11PM 41.0683 -83.2300 239° Southwest 155 178 10,000  Level Cleveland Center
07:12PM 41.0506 -83.2761 243° Southwest 155 178 10,000 -60 Level Cleveland Center
07:13PM 41.0306 -83.3247 241° Southwest 155 178 9,900  Descending Cleveland Center
07:15PM 40.9989 -83.4092 244° Southwest 153 176 10,000  Climbing Indianapolis Center
07:16PM 40.9794 -83.4594 243° Southwest 152 175 10,000 -60 Level Indianapolis Center
07:17PM 40.9567 -83.5156 242° Southwest 150 173 9,900 -60 Descending Indianapolis Center
07:18PM 40.9369 -83.5642 242° Southwest 149 171 9,900  Level Indianapolis Center
07:19PM 40.9178 -83.6128 242° Southwest 148 170 10,000  Climbing Indianapolis Center
07:20PM 40.8992 -83.6625 244° Southwest 149 171 10,000  Level Indianapolis Center
07:21PM 40.8783 -83.7119 241° Southwest 152 175 10,000  Level Indianapolis Center
07:22PM 40.8589 -83.7614 243° Southwest 152 175 10,000  Level Indianapolis Center
07:23PM 40.8400 -83.8089 242° Southwest 147 169 10,000  Level Indianapolis Center
07:24PM 40.8183 -83.8656 243° Southwest 147 169 10,000  Level Indianapolis Center
07:25PM 40.7978 -83.9139 241° Southwest 149 171 10,000 -60 Level Indianapolis Center
07:26PM 40.7700 -83.9575 230° Southwest 155 178 9,900  Descending Indianapolis Center
07:27PM 40.7444 -84.0033 234° Southwest 153 176 10,000 60 Climbing Indianapolis Center
07:28PM 40.7328 -84.0236 233° Southwest 152 175 10,000 60 Level Indianapolis Center
07:28PM 40.7181 -84.0522 236° Southwest 152 175 10,100 -60 Climbing Indianapolis Center
07:29PM 40.6947 -84.0919 232° Southwest 150 173 9,900 -60 Descending Indianapolis Center
07:30PM 40.6675 -84.1389 233° Southwest 151 174 10,000  Climbing Indianapolis Center
07:32PM 40.6422 -84.1819 232° Southwest 153 176 9,900  Descending Indianapolis Center
07:33PM 40.6122 -84.2306 231° Southwest 149 171 10,000  Climbing Indianapolis Center
07:33PM 40.5881 -84.2714 232° Southwest 150 173 10,000  Level Indianapolis Center
07:34PM 40.5636 -84.3147 233° Southwest 149 171 10,000 -60 Level Indianapolis Center
07:36PM 40.5361 -84.3628 233° Southwest 148 170 9,900  Descending Indianapolis Center
07:36PM 40.5128 -84.4011 231° Southwest 148 170 10,000  Climbing Indianapolis Center
07:38PM 40.4883 -84.4444 233° Southwest 148 170 10,000  Level Indianapolis Center
07:39PM 40.4592 -84.4925 231° Southwest 150 173 10,000  Level Indianapolis Center
07:40PM 40.4325 -84.5367 232° Southwest 150 173 10,000  Level Indianapolis Center
07:41PM 40.4075 -84.5819 234° Southwest 152 175 10,000  Level Indianapolis Center
07:42PM 40.3778 -84.6328 233° Southwest 150 173 10,000  Level Indianapolis Center
07:43PM 40.3564 -84.6756 237° Southwest 151 174 10,000  Level Indianapolis Center
07:44PM 40.3319 -84.7161 232° Southwest 153 176 10,000  Level Indianapolis Center
07:45PM 40.3017 -84.7675 232° Southwest 153 176 10,000  Level Indianapolis Center
07:46PM 40.2828 -84.8022 235° Southwest 152 175 10,000  Level Indianapolis Center
07:46PM 40.2775 -84.8131 237° Southwest 151 174 10,000  Level Indianapolis Center
07:47PM 40.2561 -84.8450 229° Southwest 153 176 10,000  Level Indianapolis Center
07:47PM 40.2494 -84.8581 236° Southwest 155 178 10,000  Level Indianapolis Center
07:48PM 40.2314 -84.8906 234° Southwest 156 180 10,000  Level Indianapolis Center
07:48PM 40.2222 -84.9069 234° Southwest 154 177 10,000  Level Indianapolis Center
07:49PM 40.2042 -84.9414 236° Southwest 155 178 10,000  Level Indianapolis Center
07:49PM 40.1950 -84.9533 225° Southwest 158 182 10,000  Level Indianapolis Center
07:50PM 40.1797 -84.9817 235° Southwest 157 181 10,000  Level Indianapolis Center
07:50PM 40.1700 -84.9986 233° Southwest 155 178 10,000  Level Indianapolis Center
07:51PM 40.1528 -85.0269 232° Southwest 156 180 10,000  Level Indianapolis Center
07:51PM 40.1433 -85.0436 233° Southwest 155 178 10,000  Level Indianapolis Center
07:52PM 40.1256 -85.0750 233° Southwest 155 178 10,000  Level Indianapolis Center
07:52PM 40.1153 -85.0889 226° Southwest 157 181 10,000  Level Indianapolis Center
07:53PM 40.1014 -85.1125 232° Southwest 159 183 10,000  Level Indianapolis Center
07:53PM 40.0883 -85.1344 232° Southwest 158 182 10,000  Level Indianapolis Center
07:54PM 40.0564 -85.1856 231° Southwest 156 180 10,000  Level Indianapolis Center
07:55PM 40.0536 -85.2372 266° West 146 168 10,000 -120 Level Indianapolis Center
07:56PM 40.0575 -85.2889 276° West 142 163 9,800 -420 Descending Indianapolis Center
07:57PM 40.0536 -85.3469 265° West 158 182 9,200 -600 Descending Indianapolis Center
07:58PM 40.0503 -85.4058 266° West 162 186 8,600 -660 Descending Indianapolis Center
07:59PM 40.0472 -85.4669 266° West 166 191 7,900 -780 Descending Indianapolis Center
08:00PM 40.0439 -85.5264 266° West 165 190 7,100 -720 Descending Indianapolis Center
08:01PM 40.0408 -85.5872 266° West 166 191 6,500 -600 Descending Indianapolis Center
08:02PM 40.0369 -85.6564 266° West 165 190 5,900 -600 Descending Indianapolis Center
08:03PM 40.0347 -85.7164 267° West 164 189 5,300 -600 Descending Indianapolis Center
08:04PM 40.0319 -85.7761 267° West 165 190 4,700 -540 Descending Indianapolis Center
08:05PM 40.0272 -85.8381 264° West 167 192 4,200 -600 Descending Indianapolis Center
08:07PM 40.0225 -85.8992 264° West 169 194 3,500 -600 Descending Indianapolis Center
08:08PM 40.0178 -85.9600 264° West 168 193 3,000 -240 Descending Indianapolis Center
08:09PM 40.0106 -86.0164 261° West 163 188 3,100  Climbing Indianapolis Center
08:10PM 39.9914 -86.0667 244° Southwest 156 180 3,000 -60 Descending Indianapolis Center
08:11PM 39.9697 -86.1258 244° Southwest 155 178 3,000  Level Indianapolis Center
08:11PM 39.9614 -86.1403 233° Southwest 155 178 3,000  Level Chicago Center